Time;durP1;ratioP1;P1;durP2;ratioP2;P2;SDS_P1;SDS_P2;PMS_P1;PMS_P2;Temp;Humidity;BMP_temperature;BMP_pressure;BME280_temperature;BME280_humidity;BME280_pressure;Samples;Min_cycle;Max_cycle;Signal;HPM_P1;HPM_P2
2022/02/12 09:59:21;;;;;;;12.85;3.38;;;;;;;;;;5231425;22;20041;-93
2022/02/12 10:01:48;;;;;;;9.77;3.22;;;;;;;;;;5023664;28;20116;-94
2022/02/12 10:04:44;;;;;;;12.02;3.35;;;;;;;;;;5023990;28;20073;-94
2022/02/12 10:07:28;;;;;;;10.30;3.15;;;;;;;;;;5024291;28;20040;-94
2022/02/12 10:13:31;;;;;;;15.32;4.15;;;;;;;;;;5039943;28;20024;-94
2022/02/12 10:16:11;;;;;;;15.27;3.40;;;;;;;;;;5023836;28;20115;-94
2022/02/12 10:18:57;;;;;;;10.27;3.17;;;;;;;;;;5003947;28;20027;-94
2022/02/12 10:27:00;;;;;;;12.68;3.78;;;;;;;;;;5676529;22;20050;-93
2022/02/12 10:29:35;;;;;;;11.20;3.20;;;;;;;;;;5039503;28;20061;-93
2022/02/12 10:50:23;;;;;;;6.75;2.97;;;;;;;;;;5906818;22;20025;-93
2022/02/12 10:52:51;;;;;;;14.73;3.22;;;;;;;;;;5022524;28;20076;-94
2022/02/12 10:55:29;;;;;;;9.95;2.80;;;;;;;;;;5022824;28;20038;-94
2022/02/12 11:05:29;;;;;;;20.52;3.50;;;;;;;;;;4960327;28;20045;-94
2022/02/12 11:08:10;;;;;;;12.05;3.22;;;;;;;;;;4945327;28;20072;-95
2022/02/12 11:10:50;;;;;;;16.10;2.22;;;;;;;;;;4959779;28;20039;-95
2022/02/12 11:13:33;;;;;;;6.82;2.35;;;;;;;;;;4958735;28;20099;-95
2022/02/12 11:16:03;;;;;;;11.25;3.70;;;;;;;;;;4960211;28;20039;-94
2022/02/12 11:25:57;;;;;;;11.90;2.55;;;;;;;;;;4960291;28;20060;-94
2022/02/12 11:28:37;;;;;;;12.23;2.95;;;;;;;;;;4966785;28;20048;-95
2022/02/12 11:37:59;;;;;;;12.77;2.95;;;;;;;;;;5580828;22;20115;-94
2022/02/12 11:40:28;;;;;;;13.48;3.08;;;;;;;;;;5041166;28;20049;-94
2022/02/12 11:43:00;;;;;;;13.15;3.22;;;;;;;;;;5042968;28;20066;-94
2022/02/12 11:49:31;;;;;;;15.80;3.40;;;;;;;;;;5062513;28;20033;-94
2022/02/12 11:52:04;;;;;;;8.52;3.00;;;;;;;;;;5026281;28;20053;-94
2022/02/12 11:58:24;;;;;;;13.40;3.05;;;;;;;;;;5042819;28;20044;-95
2022/02/12 12:00:59;;;;;;;14.48;3.90;;;;;;;;;;5026871;28;20036;-94
2022/02/12 12:03:26;;;;;;;14.95;3.28;;;;;;;;;;5025802;28;20072;-94
2022/02/12 12:06:20;;;;;;;10.75;3.28;;;;;;;;;;5025892;28;20060;-95
2022/02/12 12:09:02;;;;;;;17.23;3.10;;;;;;;;;;5025576;28;20041;-96
2022/02/12 12:12:07;;;;;;;15.32;3.00;;;;;;;;;;5025635;28;20052;-95
2022/02/12 12:14:44;;;;;;;21.48;4.75;;;;;;;;;;5026787;28;20052;-95
2022/02/12 12:17:32;;;;;;;14.80;3.35;;;;;;;;;;5025169;28;20096;-95
2022/02/12 12:20:05;;;;;;;11.55;2.92;;;;;;;;;;5024871;28;20033;-93
2022/02/12 12:22:33;;;;;;;12.90;3.00;;;;;;;;;;5024989;28;20060;-94
2022/02/12 12:25:03;;;;;;;14.45;2.80;;;;;;;;;;5040992;28;20029;-95
2022/02/12 12:27:32;;;;;;;14.10;3.00;;;;;;;;;;5043126;28;20041;-94
2022/02/12 12:33:20;;;;;;;10.15;2.80;;;;;;;;;;5060824;28;20044;-95
2022/02/12 12:39:12;;;;;;;9.55;2.42;;;;;;;;;;5056823;28;20033;-94
2022/02/12 12:41:54;;;;;;;11.60;2.88;;;;;;;;;;5043760;28;20044;-95
2022/02/12 12:44:50;;;;;;;12.13;2.80;;;;;;;;;;5044776;28;20043;-94
2022/02/12 12:47:20;;;;;;;11.65;2.83;;;;;;;;;;5044620;28;20045;-94
2022/02/12 12:49:52;;;;;;;14.18;3.90;;;;;;;;;;5044857;28;20093;-94
2022/02/12 12:55:46;;;;;;;13.55;3.20;;;;;;;;;;5061567;28;20044;-94
2022/02/12 12:58:15;;;;;;;13.93;2.88;;;;;;;;;;5061261;28;20102;-92
2022/02/12 13:00:43;;;;;;;18.48;3.25;;;;;;;;;;5044471;28;20033;-95
2022/02/12 13:10:08;;;;;;;10.07;2.88;;;;;;;;;;5058984;28;20040;-95
2022/02/12 13:12:43;;;;;;;11.40;3.22;;;;;;;;;;5043150;28;20072;-94
2022/02/12 13:15:20;;;;;;;12.23;3.35;;;;;;;;;;5043826;28;20037;-94
2022/02/12 13:18:23;;;;;;;14.55;3.17;;;;;;;;;;5042600;28;20034;-94
2022/02/12 13:20:51;;;;;;;15.00;3.50;;;;;;;;;;5042714;28;20108;-94
2022/02/12 13:23:22;;;;;;;15.15;3.35;;;;;;;;;;5041822;28;20064;-95
2022/02/12 13:26:02;;;;;;;12.88;3.88;;;;;;;;;;5042250;28;20061;-95
2022/02/12 13:28:33;;;;;;;17.30;2.78;;;;;;;;;;5040887;28;20064;-94
2022/02/12 13:31:07;;;;;;;14.98;2.95;;;;;;;;;;5044285;28;20041;-95
2022/02/12 13:34:02;;;;;;;15.73;3.55;;;;;;;;;;5045201;28;20032;-95
2022/02/12 13:36:29;;;;;;;14.13;3.42;;;;;;;;;;5043663;28;20044;-95
2022/02/12 13:39:04;;;;;;;13.38;3.70;;;;;;;;;;5067243;23;20110;-93
2022/02/12 13:41:38;;;;;;;18.30;3.47;;;;;;;;;;5040207;28;20063;-94
2022/02/12 13:47:07;;;;;;;10.27;2.88;;;;;;;;;;5622630;22;20053;-94
2022/02/12 13:49:47;;;;;;;19.38;3.70;;;;;;;;;;5043640;28;20067;-94
2022/02/12 13:55:48;;;;;;;18.35;4.30;;;;;;;;;;5058739;28;20048;-95
2022/02/12 13:58:16;;;;;;;12.68;3.38;;;;;;;;;;5042025;28;20101;-94
2022/02/12 14:00:44;;;;;;;22.40;3.85;;;;;;;;;;5042836;28;20033;-95
2022/02/12 14:03:46;;;;;;;9.95;3.08;;;;;;;;;;5042456;28;20033;-94
2022/02/12 14:06:22;;;;;;;16.58;3.70;;;;;;;;;;5042735;28;20064;-94
2022/02/12 14:08:51;;;;;;;13.93;4.05;;;;;;;;;;5043343;28;20034;-95
2022/02/12 14:11:32;;;;;;;17.17;3.92;;;;;;;;;;5043352;28;20059;-94
2022/02/12 14:14:03;;;;;;;13.68;3.15;;;;;;;;;;5043200;28;20121;-95
2022/02/12 14:26:50;;;;;;;15.27;3.60;;;;;;;;;;5039668;28;20045;-95
2022/02/12 14:29:31;;;;;;;16.00;4.32;;;;;;;;;;5024569;28;20097;-96
2022/02/12 14:32:00;;;;;;;11.80;4.35;;;;;;;;;;5022669;28;20037;-95
2022/02/12 14:34:42;;;;;;;20.38;3.95;;;;;;;;;;5024745;28;20029;-95
2022/02/12 14:37:09;;;;;;;23.63;3.35;;;;;;;;;;5022632;28;20050;-94
2022/02/12 14:50:08;;;;;;;14.57;3.90;;;;;;;;;;5015228;28;20129;-96
2022/02/12 14:52:48;;;;;;;22.10;6.10;;;;;;;;;;5017460;28;20045;-95
2022/02/12 14:55:29;;;;;;;31.95;6.43;;;;;;;;;;5016572;28;20031;-95
2022/02/12 14:58:03;;;;;;;25.08;4.13;;;;;;;;;;5036665;28;20064;-95
2022/02/12 15:00:31;;;;;;;14.20;4.97;;;;;;;;;;5037177;28;20101;-95
2022/02/12 15:02:59;;;;;;;21.48;5.10;;;;;;;;;;5037819;28;20094;-95
2022/02/12 15:05:40;;;;;;;20.73;8.30;;;;;;;;;;5037230;28;20065;-95
2022/02/12 15:15:05;;;;;;;14.75;4.68;;;;;;;;;;5038678;28;20154;-95
2022/02/12 15:17:34;;;;;;;24.17;7.78;;;;;;;;;;5037357;28;20034;-95
2022/02/12 15:20:15;;;;;;;22.00;10.52;;;;;;;;;;5036204;28;20030;-96
2022/02/12 15:26:39;;;;;;;23.42;8.43;;;;;;;;;;5038130;28;20229;-94
2022/02/12 15:29:20;;;;;;;20.52;7.28;;;;;;;;;;5037611;28;20065;-94
2022/02/12 15:32:05;;;;;;;17.70;6.10;;;;;;;;;;5033841;28;20073;-94
2022/02/12 15:51:48;;;;;;;18.65;4.32;;;;;;;;;;5037061;28;20060;-95
2022/02/12 15:54:19;;;;;;;25.45;9.85;;;;;;;;;;5038012;28;20037;-96
2022/02/12 15:57:01;;;;;;;25.58;11.45;;;;;;;;;;5037612;28;20057;-96
2022/02/12 15:59:51;;;;;;;24.90;9.88;;;;;;;;;;5003142;28;20041;-95
2022/02/12 16:15:28;;;;;;;29.70;11.67;;;;;;;;;;5875525;23;20049;-94
2022/02/12 16:18:00;;;;;;;18.42;7.03;;;;;;;;;;5041395;28;20064;-95
2022/02/12 16:20:29;;;;;;;41.20;14.18;;;;;;;;;;5041024;28;20065;-94
2022/02/12 16:36:53;;;;;;;;;;;;;;;;;;5062164;28;20032;-95
2022/02/12 16:39:21;;;;;;;23.08;9.20;;;;;;;;;;5044767;28;19915;-94
2022/02/12 16:42:33;;;;;;;13.55;4.57;;;;;;;;;;5045389;28;20026;-95
2022/02/12 16:45:14;;;;;;;12.90;4.43;;;;;;;;;;5045402;28;20084;-95
2022/02/12 16:50:31;;;;;;;14.83;3.57;;;;;;;;;;5079157;22;20058;-94
2022/02/12 16:53:13;;;;;;;10.25;3.75;;;;;;;;;;5027841;28;20085;-96
2022/02/12 16:55:58;;;;;;;16.00;4.97;;;;;;;;;;5027384;28;20022;-96
2022/02/12 16:58:40;;;;;;;20.83;11.55;;;;;;;;;;5025365;28;20049;-96
2022/02/12 17:01:21;;;;;;;35.60;13.10;;;;;;;;;;5024547;28;20029;-96
2022/02/12 17:04:01;;;;;;;14.02;4.68;;;;;;;;;;5027094;28;20013;-96
2022/02/12 17:06:42;;;;;;;25.90;13.15;;;;;;;;;;5026538;28;20032;-96
2022/02/12 17:09:22;;;;;;;14.80;4.72;;;;;;;;;;5026921;28;20029;-96
2022/02/12 17:12:03;;;;;;;20.98;5.03;;;;;;;;;;5026787;28;20026;-95
2022/02/12 17:14:44;;;;;;;16.98;4.30;;;;;;;;;;5026853;28;20014;-95
2022/02/12 17:17:43;;;;;;;19.95;5.78;;;;;;;;;;5026327;28;20036;-96
2022/02/12 17:20:24;;;;;;;15.30;10.85;;;;;;;;;;5024604;28;20033;-95
